Time;durP1;ratioP1;P1;durP2;ratioP2;P2;SDS_P1;SDS_P2;PMS_P1;PMS_P2;Temp;Humidity;BMP_temperature;BMP_pressure;BME280_temperature;BME280_humidity;BME280_pressure;Samples;Min_cycle;Max_cycle;Signal;HPM_P1;HPM_P2
2021/03/07 00:00:13;;;;;;;;;;;;;;;;;;4987256;28;927;-61
2021/03/07 00:02:38;;;;;;;;;;;;;;;;;;4987374;28;994;-62
2021/03/07 00:05:04;;;;;;;;;;;;;;;;;;4988764;28;1922;-62
2021/03/07 00:07:30;;;;;;;;;;;;;;;;;;4988225;28;827;-62
2021/03/07 00:09:55;;;;;;;;;;;;;;;;;;4987943;28;879;-61
2021/03/07 00:12:20;;;;;;;;;;;;;;;;;;4987598;28;851;-61
2021/03/07 00:14:46;;;;;;;;;;;;;;;;;;4987987;28;824;-60
2021/03/07 00:17:11;;;;;;;;;;;;;;;;;;4987871;28;835;-62
2021/03/07 00:19:37;;;;;;;;;;;;;;;;;;4987518;28;966;-61
2021/03/07 00:22:02;;;;;;;;;;;;;;;;;;4990339;28;1526;-61
2021/03/07 00:24:28;;;;;;;;;;;;;;;;;;4987754;28;1890;-61
2021/03/07 00:26:53;;;;;;;;;;;;;;;;;;5001463;28;1155;-61
2021/03/07 00:29:18;;;;;;;;;;;;;;;;;;4987195;28;898;-62
2021/03/07 00:31:44;;;;;;;;;;;;;;;;;;4987164;28;871;-62
2021/03/07 00:34:09;;;;;;;;;;;;;;;;;;4987694;28;1048;-61
2021/03/07 00:36:35;;;;;;;;;;;;;;;;;;4988276;28;827;-61
2021/03/07 00:39:00;;;;;;;;;;;;;;;;;;4987674;28;887;-61
2021/03/07 00:41:26;;;;;;;;;;;;;;;;;;4987867;28;754;-61
2021/03/07 00:43:51;;;;;;;;;;;;;;;;;;4987738;28;1886;-61
2021/03/07 00:46:16;;;;;;;;;;;;;;;;;;4989551;28;1553;-61
2021/03/07 00:48:42;;;;;;;;;;;;;;;;;;5007203;28;803;-62
2021/03/07 00:51:07;;;;;;;;;;;;;;;;;;5007352;28;1010;-61
2021/03/07 00:53:32;;;;;;;;;;;;;;;;;;5014778;28;1084;-61
2021/03/07 00:55:58;;;;;;;;;;;;;;;;;;5028378;28;835;-61
2021/03/07 00:58:23;;;;;;;;;;;;;;;;;;5026547;28;871;-62
2021/03/07 01:00:48;;;;;;;;;;;;;;;;;;5025381;28;1240;-62
2021/03/07 01:03:14;;;;;;;;;;;;;;;;;;5026504;28;827;-63
2021/03/07 01:05:40;;;;;;;;;;;;;;;;;;5026691;28;1977;-64
2021/03/07 01:08:06;;;;;;;;;;;;;;;;;;5027214;28;895;-64
2021/03/07 01:10:31;;;;;;;;;;;;;;;;;;5027162;28;859;-61
2021/03/07 01:12:57;;;;;;;;;;;;;;;;;;5024826;28;840;-61
2021/03/07 01:15:24;;;;;;;;;;;;;;;;;;5025722;28;828;-63
2021/03/07 01:17:49;;;;;;;;;;;;;;;;;;5007667;28;1407;-61
2021/03/07 01:20:16;;;;;;;;;;;;;;;;;;5006348;28;843;-61
2021/03/07 01:22:41;;;;;;;;;;;;;;;;;;5006242;28;825;-61
2021/03/07 01:25:07;;;;;;;;;;;;;;;;;;5007955;28;1979;-62
2021/03/07 01:27:32;;;;;;;;;;;;;;;;;;5007064;28;886;-61
2021/03/07 01:29:58;;;;;;;;;;;;;;;;;;5006775;28;933;-61
2021/03/07 01:32:23;;;;;;;;;;;;;;;;;;5006633;28;902;-60
2021/03/07 01:34:48;;;;;;;;;;;;;;;;;;5006487;28;922;-61
2021/03/07 01:37:14;;;;;;;;;;;;;;;;;;5006546;28;970;-60
2021/03/07 01:39:39;;;;;;;;;;;;;;;;;;5006632;28;816;-61
2021/03/07 01:42:08;;;;;;;;;;;;;;;;;;5007113;28;903;-61
2021/03/07 01:44:33;;;;;;;;;;;;;;;;;;5006995;28;1894;-61
2021/03/07 01:46:59;;;;;;;;;;;;;;;;;;5001976;28;1455;-61
2021/03/07 01:49:24;;;;;;;;;;;;;;;;;;5006605;28;818;-61
2021/03/07 01:51:50;;;;;;;;;;;;;;;;;;5005878;28;844;-61
2021/03/07 01:54:15;;;;;;;;;;;;;;;;;;5019379;28;1020;-61
2021/03/07 01:56:41;;;;;;;;;;;;;;;;;;5028374;28;882;-62
2021/03/07 01:59:06;;;;;;;;;;;;;;;;;;5026522;28;862;-62
2021/03/07 02:01:32;;;;;;;;;;;;;;;;;;5027736;28;815;-61
2021/03/07 02:03:57;;;;;;;;;;;;;;;;;;5029906;28;1906;-61
2021/03/07 02:06:23;;;;;;;;;;;;;;;;;;5030060;28;820;-61
2021/03/07 02:08:49;;;;;;;;;;;;;;;;;;5029617;28;799;-60
2021/03/07 02:11:15;;;;;;;;;;;;;;;;;;5028791;28;862;-61
2021/03/07 02:13:41;;;;;;;;;;;;;;;;;;5028754;28;891;-62
2021/03/07 02:16:14;;;;;;;;;;;;;;;;;;5010210;28;1663;-64
2021/03/07 02:18:40;;;;;;;;;;;;;;;;;;5009573;28;1037;-61
2021/03/07 02:21:10;;;;;;;;;;;;;;;;;;5010260;28;787;-61
2021/03/07 02:23:40;;;;;;;;;;;;;;;;;;5009760;28;1902;-61
2021/03/07 02:26:05;;;;;;;;;;;;;;;;;;5008953;28;936;-61
2021/03/07 02:28:31;;;;;;;;;;;;;;;;;;5007679;28;808;-61
2021/03/07 02:30:56;;;;;;;;;;;;;;;;;;5008548;28;1272;-60
2021/03/07 02:33:32;;;;;;;;;;;;;;;;;;5008960;28;886;-61
2021/03/07 02:36:02;;;;;;;;;;;;;;;;;;5009135;28;910;-60
2021/03/07 02:38:29;;;;;;;;;;;;;;;;;;5008867;28;1063;-61
2021/03/07 02:40:56;;;;;;;;;;;;;;;;;;5018479;28;1432;-60
2021/03/07 02:43:22;;;;;;;;;;;;;;;;;;5028984;28;898;-61
2021/03/07 02:45:48;;;;;;;;;;;;;;;;;;5028654;28;870;-60
2021/03/07 02:48:16;;;;;;;;;;;;;;;;;;4989919;28;1197;-61
2021/03/07 02:50:43;;;;;;;;;;;;;;;;;;4989265;28;836;-61
2021/03/07 02:53:12;;;;;;;;;;;;;;;;;;4994002;28;1171;-61
2021/03/07 02:55:38;;;;;;;;;;;;;;;;;;5008758;28;824;-60
2021/03/07 02:58:05;;;;;;;;;;;;;;;;;;5011523;28;1088;-60
2021/03/07 03:00:32;;;;;;;;;;;;;;;;;;5008010;28;867;-60
2021/03/07 03:02:59;;;;;;;;;;;;;;;;;;5008695;28;875;-60
2021/03/07 03:05:24;;;;;;;;;;;;;;;;;;5008728;28;1914;-61
2021/03/07 03:07:50;;;;;;;;;;;;;;;;;;5009110;28;871;-63
2021/03/07 03:10:16;;;;;;;;;;;;;;;;;;4991351;28;1662;-61
2021/03/07 03:12:44;;;;;;;;;;;;;;;;;;4988282;28;879;-62
2021/03/07 03:15:10;;;;;;;;;;;;;;;;;;4988328;28;891;-61
2021/03/07 03:17:37;;;;;;;;;;;;;;;;;;4989464;28;1173;-62
2021/03/07 03:20:04;;;;;;;;;;;;;;;;;;4989525;28;955;-60
2021/03/07 03:22:31;;;;;;;;;;;;;;;;;;4988054;28;610;-62
2021/03/07 03:24:56;;;;;;;;;;;;;;;;;;4992945;28;1976;-61
2021/03/07 03:27:22;;;;;;;;;;;;;;;;;;5008518;28;1318;-60
2021/03/07 03:29:47;;;;;;;;;;;;;;;;;;5007571;28;816;-60
2021/03/07 03:32:13;;;;;;;;;;;;;;;;;;5007719;28;840;-63
2021/03/07 03:34:38;;;;;;;;;;;;;;;;;;5008063;28;886;-61
2021/03/07 03:37:04;;;;;;;;;;;;;;;;;;5008776;28;824;-60
2021/03/07 03:39:29;;;;;;;;;;;;;;;;;;5008194;28;898;-62
2021/03/07 03:41:57;;;;;;;;;;;;;;;;;;4996664;28;1507;-61
2021/03/07 03:44:25;;;;;;;;;;;;;;;;;;4988413;28;1910;-61
2021/03/07 03:46:51;;;;;;;;;;;;;;;;;;4988245;28;835;-61
2021/03/07 03:49:24;;;;;;;;;;;;;;;;;;4987598;28;859;-61
2021/03/07 03:51:53;;;;;;;;;;;;;;;;;;4988312;28;812;-62
2021/03/07 03:54:20;;;;;;;;;;;;;;;;;;5016689;28;1170;-62
2021/03/07 03:56:47;;;;;;;;;;;;;;;;;;5027337;28;803;-61
2021/03/07 03:59:15;;;;;;;;;;;;;;;;;;5029662;28;918;-60
2021/03/07 04:01:41;;;;;;;;;;;;;;;;;;5027193;28;926;-64
2021/03/07 04:04:06;;;;;;;;;;;;;;;;;;5027438;28;1898;-64
2021/03/07 04:06:32;;;;;;;;;;;;;;;;;;5020413;28;1465;-63
2021/03/07 04:08:57;;;;;;;;;;;;;;;;;;5007706;28;859;-62
2021/03/07 04:11:24;;;;;;;;;;;;;;;;;;4999198;28;871;-63
2021/03/07 04:13:49;;;;;;;;;;;;;;;;;;4997733;28;875;-63
2021/03/07 04:16:16;;;;;;;;;;;;;;;;;;5007566;28;839;-64
2021/03/07 04:18:41;;;;;;;;;;;;;;;;;;5007323;28;860;-63
2021/03/07 04:21:07;;;;;;;;;;;;;;;;;;5006761;28;888;-63
2021/03/07 04:23:33;;;;;;;;;;;;;;;;;;5002151;28;1985;-61
2021/03/07 04:25:58;;;;;;;;;;;;;;;;;;4985919;28;1239;-61
2021/03/07 04:28:24;;;;;;;;;;;;;;;;;;4986398;28;832;-60
2021/03/07 04:30:50;;;;;;;;;;;;;;;;;;4986138;28;812;-61
2021/03/07 04:33:16;;;;;;;;;;;;;;;;;;4986804;28;832;-60
2021/03/07 04:35:41;;;;;;;;;;;;;;;;;;4986370;28;866;-62
2021/03/07 04:38:07;;;;;;;;;;;;;;;;;;4986903;28;836;-62
2021/03/07 04:40:33;;;;;;;;;;;;;;;;;;4987578;28;887;-61
2021/03/07 04:42:59;;;;;;;;;;;;;;;;;;4987260;28;820;-60
2021/03/07 04:45:25;;;;;;;;;;;;;;;;;;4986644;28;1969;-60
2021/03/07 04:47:50;;;;;;;;;;;;;;;;;;4986949;28;859;-60
2021/03/07 04:50:15;;;;;;;;;;;;;;;;;;4986435;28;892;-61
2021/03/07 04:52:41;;;;;;;;;;;;;;;;;;4986316;28;1273;-60
2021/03/07 04:55:08;;;;;;;;;;;;;;;;;;5023909;28;1039;-61
2021/03/07 04:57:33;;;;;;;;;;;;;;;;;;5026806;28;848;-61
2021/03/07 04:59:59;;;;;;;;;;;;;;;;;;5027688;28;950;-61
2021/03/07 05:02:24;;;;;;;;;;;;;;;;;;5024136;28;1190;-60
2021/03/07 05:04:50;;;;;;;;;;;;;;;;;;5023903;28;1977;-60
2021/03/07 05:07:15;;;;;;;;;;;;;;;;;;5024294;28;915;-60
2021/03/07 05:09:40;;;;;;;;;;;;;;;;;;5026044;28;887;-60
2021/03/07 05:12:06;;;;;;;;;;;;;;;;;;5026343;28;887;-62
2021/03/07 05:14:31;;;;;;;;;;;;;;;;;;5026658;28;843;-61
2021/03/07 05:16:58;;;;;;;;;;;;;;;;;;5025044;28;1372;-61
2021/03/07 05:19:23;;;;;;;;;;;;;;;;;;5026059;28;831;-60
2021/03/07 05:21:48;;;;;;;;;;;;;;;;;;5022745;28;1602;-61
2021/03/07 05:24:14;;;;;;;;;;;;;;;;;;5006233;28;1902;-60
2021/03/07 05:26:39;;;;;;;;;;;;;;;;;;5006351;28;608;-60
2021/03/07 05:29:05;;;;;;;;;;;;;;;;;;5007186;28;928;-62
2021/03/07 05:31:30;;;;;;;;;;;;;;;;;;5008497;28;1151;-60
2021/03/07 05:33:56;;;;;;;;;;;;;;;;;;5006567;28;836;-60
2021/03/07 05:36:21;;;;;;;;;;;;;;;;;;5007196;28;819;-60
2021/03/07 05:38:47;;;;;;;;;;;;;;;;;;5009763;28;925;-61
2021/03/07 05:41:12;;;;;;;;;;;;;;;;;;5009634;28;851;-61
2021/03/07 05:43:39;;;;;;;;;;;;;;;;;;5009323;28;1902;-60
2021/03/07 05:46:05;;;;;;;;;;;;;;;;;;5010346;28;934;-60
2021/03/07 05:48:30;;;;;;;;;;;;;;;;;;5009896;28;815;-61
2021/03/07 05:50:56;;;;;;;;;;;;;;;;;;5007096;28;1390;-60
2021/03/07 05:53:22;;;;;;;;;;;;;;;;;;5016445;28;1017;-60
2021/03/07 05:55:47;;;;;;;;;;;;;;;;;;5028394;28;846;-60
2021/03/07 05:58:13;;;;;;;;;;;;;;;;;;5029044;28;965;-61
2021/03/07 06:00:39;;;;;;;;;;;;;;;;;;5031234;28;843;-61
2021/03/07 06:03:05;;;;;;;;;;;;;;;;;;5029822;28;894;-61
2021/03/07 06:05:32;;;;;;;;;;;;;;;;;;5029807;28;1901;-60
2021/03/07 06:07:58;;;;;;;;;;;;;;;;;;5028891;28;882;-60
2021/03/07 06:10:27;;;;;;;;;;;;;;;;;;5028705;28;839;-60
2021/03/07 06:12:58;;;;;;;;;;;;;;;;;;5029205;28;844;-60
2021/03/07 06:15:23;;;;;;;;;;;;;;;;;;5029123;28;906;-61
2021/03/07 06:17:48;;;;;;;;;;;;;;;;;;5015224;28;1626;-60
2021/03/07 06:20:15;;;;;;;;;;;;;;;;;;5009398;28;919;-60
2021/03/07 06:22:50;;;;;;;;;;;;;;;;;;5011482;28;1424;-61
2021/03/07 06:25:16;;;;;;;;;;;;;;;;;;4991647;28;1952;-60
2021/03/07 06:27:41;;;;;;;;;;;;;;;;;;4988762;28;867;-60
2021/03/07 06:30:07;;;;;;;;;;;;;;;;;;4989175;28;938;-62
2021/03/07 06:32:42;;;;;;;;;;;;;;;;;;4992621;28;1814;-60
2021/03/07 06:35:10;;;;;;;;;;;;;;;;;;5009416;28;902;-62
2021/03/07 06:37:54;;;;;;;;;;;;;;;;;;4990218;28;882;-60
2021/03/07 06:40:30;;;;;;;;;;;;;;;;;;4988497;28;907;-60
2021/03/07 06:42:56;;;;;;;;;;;;;;;;;;4989327;28;915;-60
2021/03/07 06:45:22;;;;;;;;;;;;;;;;;;4988855;28;1891;-59
2021/03/07 06:47:58;;;;;;;;;;;;;;;;;;4988877;28;831;-60
2021/03/07 06:50:23;;;;;;;;;;;;;;;;;;4989098;28;848;-60
2021/03/07 06:52:50;;;;;;;;;;;;;;;;;;4993156;28;1168;-60
2021/03/07 06:55:19;;;;;;;;;;;;;;;;;;5027251;28;835;-60
2021/03/07 06:57:45;;;;;;;;;;;;;;;;;;5027738;28;904;-60
2021/03/07 07:00:11;;;;;;;;;;;;;;;;;;5013782;28;931;-62
2021/03/07 07:02:37;;;;;;;;;;;;;;;;;;5006795;28;1479;-60
2021/03/07 07:05:02;;;;;;;;;;;;;;;;;;5009358;28;1977;-60
2021/03/07 07:07:29;;;;;;;;;;;;;;;;;;5008374;28;808;-62
2021/03/07 07:10:02;;;;;;;;;;;;;;;;;;5007235;28;860;-62
2021/03/07 07:12:29;;;;;;;;;;;;;;;;;;4997182;28;1321;-63
2021/03/07 07:15:09;;;;;;;;;;;;;;;;;;4991614;28;1695;-62
2021/03/07 07:17:34;;;;;;;;;;;;;;;;;;5004269;28;844;-62
2021/03/07 07:19:59;;;;;;;;;;;;;;;;;;5007660;28;844;-63
2021/03/07 07:22:25;;;;;;;;;;;;;;;;;;4993641;28;870;-62
2021/03/07 07:24:50;;;;;;;;;;;;;;;;;;5005874;28;2414;-63
2021/03/07 07:27:16;;;;;;;;;;;;;;;;;;5021297;28;1215;-63
2021/03/07 07:29:41;;;;;;;;;;;;;;;;;;5009411;28;1051;-62
2021/03/07 07:32:06;;;;;;;;;;;;;;;;;;5023844;28;1595;-62
2021/03/07 07:34:34;;;;;;;;;;;;;;;;;;5027457;28;831;-60
2021/03/07 07:37:04;;;;;;;;;;;;;;;;;;5007366;28;2620;-62
2021/03/07 07:39:32;;;;;;;;;;;;;;;;;;4987052;28;832;-60
2021/03/07 07:41:57;;;;;;;;;;;;;;;;;;4993053;28;1092;-61
2021/03/07 07:44:27;;;;;;;;;;;;;;;;;;5007225;28;1989;-61
2021/03/07 07:46:59;;;;;;;;;;;;;;;;;;5023819;28;1257;-60
2021/03/07 07:49:38;;;;;;;;;;;;;;;;;;5021240;28;1504;-61
2021/03/07 07:52:21;;;;;;;;;;;;;;;;;;5008855;28;1230;-60
2021/03/07 07:54:50;;;;;;;;;;;;;;;;;;5022360;28;1108;-62
2021/03/07 07:57:38;;;;;;;;;;;;;;;;;;5003050;28;2348;-61
2021/03/07 08:00:05;;;;;;;;;;;;;;;;;;5007902;28;903;-60
2021/03/07 08:02:42;;;;;;;;;;;;;;;;;;5007038;28;1172;-60
2021/03/07 08:05:20;;;;;;;;;;;;;;;;;;5007531;28;2074;-60
2021/03/07 08:07:59;;;;;;;;;;;;;;;;;;5006808;28;880;-61
2021/03/07 08:10:39;;;;;;;;;;;;;;;;;;4987949;28;1309;-60
2021/03/07 08:13:11;;;;;;;;;;;;;;;;;;4991668;28;1160;-62
2021/03/07 08:15:39;;;;;;;;;;;;;;;;;;5005372;28;1149;-61
2021/03/07 08:18:05;;;;;;;;;;;;;;;;;;5003347;28;1482;-61
2021/03/07 08:20:51;;;;;;;;;;;;;;;;;;4987888;28;915;-61
2021/03/07 08:23:17;;;;;;;;;;;;;;;;;;4986076;28;1164;-60
2021/03/07 08:25:46;;;;;;;;;;;;;;;;;;4990490;28;1910;-62
2021/03/07 08:28:23;;;;;;;;;;;;;;;;;;5005026;28;2313;-60
2021/03/07 08:30:49;;;;;;;;;;;;;;;;;;5005133;28;1748;-60
2021/03/07 08:33:24;;;;;;;;;;;;;;;;;;4986981;28;812;-61
2021/03/07 08:36:09;;;;;;;;;;;;;;;;;;4993751;28;1784;-62
2021/03/07 08:38:35;;;;;;;;;;;;;;;;;;5007258;28;883;-62
2021/03/07 08:41:00;;;;;;;;;;;;;;;;;;5006195;28;981;-63
2021/03/07 08:43:25;;;;;;;;;;;;;;;;;;5005592;28;863;-61
2021/03/07 08:46:03;;;;;;;;;;;;;;;;;;5006478;28;1971;-62
2021/03/07 08:48:29;;;;;;;;;;;;;;;;;;5006492;28;840;-62
2021/03/07 08:50:55;;;;;;;;;;;;;;;;;;5005597;28;1294;-61
2021/03/07 08:53:22;;;;;;;;;;;;;;;;;;5013954;28;1369;-62
2021/03/07 08:55:48;;;;;;;;;;;;;;;;;;5025721;28;825;-63
2021/03/07 08:58:13;;;;;;;;;;;;;;;;;;5025131;28;910;-62
2021/03/07 09:00:43;;;;;;;;;;;;;;;;;;5015809;28;1307;-62
2021/03/07 09:03:11;;;;;;;;;;;;;;;;;;5019798;28;1710;-62
2021/03/07 09:05:36;;;;;;;;;;;;;;;;;;4999852;28;2012;-62
2021/03/07 09:08:03;;;;;;;;;;;;;;;;;;4998152;28;1517;-61
2021/03/07 09:10:29;;;;;;;;;;;;;;;;;;5001846;28;1261;-62
2021/03/07 09:12:55;;;;;;;;;;;;;;;;;;5010029;28;1208;-63
2021/03/07 09:15:20;;;;;;;;;;;;;;;;;;5005329;28;1574;-62
2021/03/07 09:17:46;;;;;;;;;;;;;;;;;;5004890;28;816;-61
2021/03/07 09:20:11;;;;;;;;;;;;;;;;;;5011453;28;1064;-61
2021/03/07 09:22:37;;;;;;;;;;;;;;;;;;5009308;28;1385;-61
2021/03/07 09:25:02;;;;;;;;;;;;;;;;;;5000988;28;1891;-62
2021/03/07 09:27:29;;;;;;;;;;;;;;;;;;5005837;28;1532;-61
2021/03/07 09:29:57;;;;;;;;;;;;;;;;;;5014520;28;1021;-61
2021/03/07 09:32:23;;;;;;;;;;;;;;;;;;5001145;28;1501;-61
2021/03/07 09:34:48;;;;;;;;;;;;;;;;;;5015531;28;1362;-61
2021/03/07 09:37:13;;;;;;;;;;;;;;;;;;5017468;28;1122;-61
2021/03/07 09:39:44;;;;;;;;;;;;;;;;;;5015062;28;1164;-62
2021/03/07 09:42:09;;;;;;;;;;;;;;;;;;5010082;28;886;-61
2021/03/07 09:44:35;;;;;;;;;;;;;;;;;;5013537;28;1946;-60
2021/03/07 09:47:01;;;;;;;;;;;;;;;;;;5020941;28;1251;-61
2021/03/07 09:49:26;;;;;;;;;;;;;;;;;;5017260;28;1777;-62
2021/03/07 09:51:52;;;;;;;;;;;;;;;;;;5006567;28;1223;-63
2021/03/07 09:54:18;;;;;;;;;;;;;;;;;;4995173;28;1457;-62
2021/03/07 09:56:45;;;;;;;;;;;;;;;;;;5007341;28;892;-60
2021/03/07 09:59:12;;;;;;;;;;;;;;;;;;5007763;28;942;-61
2021/03/07 10:01:41;;;;;;;;;;;;;;;;;;5007557;28;972;-62
2021/03/07 10:04:23;;;;;;;;;;;;;;;;;;5006845;28;1898;-61
2021/03/07 10:06:49;;;;;;;;;;;;;;;;;;5008954;28;922;-61
2021/03/07 10:09:14;;;;;;;;;;;;;;;;;;5008983;28;895;-60
2021/03/07 10:11:39;;;;;;;;;;;;;;;;;;5009189;28;882;-61
2021/03/07 10:14:06;;;;;;;;;;;;;;;;;;5009844;28;867;-61
2021/03/07 10:16:33;;;;;;;;;;;;;;;;;;5008928;28;1089;-62
2021/03/07 10:19:27;;;;;;;;;;;;;;;;;;5009357;28;877;-60
2021/03/07 10:21:56;;;;;;;;;;;;;;;;;;5011532;28;2232;-61
2021/03/07 10:24:21;;;;;;;;;;;;;;;;;;5007919;28;1894;-61
2021/03/07 10:26:48;;;;;;;;;;;;;;;;;;5008506;28;824;-61
2021/03/07 10:29:19;;;;;;;;;;;;;;;;;;5008575;28;917;-60
2021/03/07 10:32:05;;;;;;;;;;;;;;;;;;5006837;28;887;-61
2021/03/07 10:34:38;;;;;;;;;;;;;;;;;;5008197;28;1210;-62
2021/03/07 10:37:03;;;;;;;;;;;;;;;;;;5008844;28;1692;-61
2021/03/07 10:39:29;;;;;;;;;;;;;;;;;;5008971;28;911;-60
2021/03/07 10:42:11;;;;;;;;;;;;;;;;;;5008781;28;888;-60
2021/03/07 10:44:39;;;;;;;;;;;;;;;;;;5008366;28;1914;-62
2021/03/07 10:47:12;;;;;;;;;;;;;;;;;;5009188;28;871;-60
2021/03/07 10:49:37;;;;;;;;;;;;;;;;;;5006597;28;1170;-61
2021/03/07 10:52:02;;;;;;;;;;;;;;;;;;5006981;28;1271;-61
2021/03/07 10:54:28;;;;;;;;;;;;;;;;;;5007727;28;1088;-60
2021/03/07 10:56:53;;;;;;;;;;;;;;;;;;5008210;28;799;-60
2021/03/07 10:59:18;;;;;;;;;;;;;;;;;;5006141;28;1513;-61
2021/03/07 11:01:44;;;;;;;;;;;;;;;;;;4999418;28;895;-61
2021/03/07 11:04:09;;;;;;;;;;;;;;;;;;5008724;28;1902;-60
2021/03/07 11:06:35;;;;;;;;;;;;;;;;;;5010906;28;977;-60
2021/03/07 11:09:00;;;;;;;;;;;;;;;;;;5008064;28;840;-60
2021/03/07 11:11:26;;;;;;;;;;;;;;;;;;5008222;28;859;-59
2021/03/07 11:13:51;;;;;;;;;;;;;;;;;;5008208;28;890;-61
2021/03/07 11:16:16;;;;;;;;;;;;;;;;;;5006194;28;1451;-59
2021/03/07 11:18:42;;;;;;;;;;;;;;;;;;5006761;28;883;-61
2021/03/07 11:21:07;;;;;;;;;;;;;;;;;;5009112;28;1362;-61
2021/03/07 11:23:33;;;;;;;;;;;;;;;;;;5008623;28;879;-61
2021/03/07 11:25:59;;;;;;;;;;;;;;;;;;5007744;28;1890;-61
2021/03/07 11:28:24;;;;;;;;;;;;;;;;;;5007923;28;1354;-61
2021/03/07 11:30:50;;;;;;;;;;;;;;;;;;5007220;28;1389;-61
2021/03/07 11:33:15;;;;;;;;;;;;;;;;;;5007864;28;1046;-61
2021/03/07 11:35:41;;;;;;;;;;;;;;;;;;5006842;28;899;-61
2021/03/07 11:38:06;;;;;;;;;;;;;;;;;;5007895;28;859;-62
2021/03/07 11:40:31;;;;;;;;;;;;;;;;;;5005710;28;1394;-62
2021/03/07 11:42:58;;;;;;;;;;;;;;;;;;5007494;28;931;-61
2021/03/07 11:45:23;;;;;;;;;;;;;;;;;;5006844;28;1890;-62
2021/03/07 11:47:49;;;;;;;;;;;;;;;;;;4990886;28;922;-61
2021/03/07 11:50:14;;;;;;;;;;;;;;;;;;4993467;28;1192;-61
2021/03/07 11:52:40;;;;;;;;;;;;;;;;;;5006802;28;1146;-62
2021/03/07 11:55:06;;;;;;;;;;;;;;;;;;5009394;28;1295;-61
2021/03/07 11:57:33;;;;;;;;;;;;;;;;;;5006994;28;1162;-61
2021/03/07 11:59:59;;;;;;;;;;;;;;;;;;5006690;28;960;-60
2021/03/07 12:02:24;;;;;;;;;;;;;;;;;;5006685;28;1617;-61
2021/03/07 12:04:50;;;;;;;;;;;;;;;;;;4998632;28;1918;-61
2021/03/07 12:07:15;;;;;;;;;;;;;;;;;;5000727;28;1544;-62
2021/03/07 12:09:40;;;;;;;;;;;;;;;;;;4998331;28;1485;-60
2021/03/07 12:12:06;;;;;;;;;;;;;;;;;;5023381;28;1073;-63
2021/03/07 12:14:32;;;;;;;;;;;;;;;;;;5017672;28;1607;-61
2021/03/07 12:16:58;;;;;;;;;;;;;;;;;;4998503;28;1494;-62
2021/03/07 12:19:23;;;;;;;;;;;;;;;;;;5005694;28;1405;-63
2021/03/07 12:21:48;;;;;;;;;;;;;;;;;;5011208;28;1156;-63
2021/03/07 12:24:14;;;;;;;;;;;;;;;;;;5023178;28;1898;-62
2021/03/07 12:26:39;;;;;;;;;;;;;;;;;;5025843;28;816;-63
2021/03/07 12:29:05;;;;;;;;;;;;;;;;;;5000726;28;1762;-63
2021/03/07 12:31:31;;;;;;;;;;;;;;;;;;4995907;28;831;-61
2021/03/07 12:33:56;;;;;;;;;;;;;;;;;;5005165;28;1751;-62
2021/03/07 12:36:22;;;;;;;;;;;;;;;;;;5014214;28;1057;-61
2021/03/07 12:38:47;;;;;;;;;;;;;;;;;;5012386;28;1195;-63
2021/03/07 12:41:12;;;;;;;;;;;;;;;;;;5008790;28;1088;-61
2021/03/07 12:43:38;;;;;;;;;;;;;;;;;;5013188;28;1226;-63
2021/03/07 12:46:03;;;;;;;;;;;;;;;;;;5007268;28;1914;-62
2021/03/07 12:48:29;;;;;;;;;;;;;;;;;;5001151;28;1865;-62
2021/03/07 12:50:54;;;;;;;;;;;;;;;;;;4995837;28;1074;-62
2021/03/07 12:53:19;;;;;;;;;;;;;;;;;;5014766;28;1172;-62
2021/03/07 12:55:45;;;;;;;;;;;;;;;;;;5017204;28;1622;-64
2021/03/07 12:58:10;;;;;;;;;;;;;;;;;;4995295;28;1698;-61
2021/03/07 13:00:35;;;;;;;;;;;;;;;;;;5004296;28;994;-62
2021/03/07 13:03:01;;;;;;;;;;;;;;;;;;4997688;28;1780;-62
2021/03/07 13:05:26;;;;;;;;;;;;;;;;;;5006741;28;1955;-61
2021/03/07 13:07:52;;;;;;;;;;;;;;;;;;5006674;28;1014;-61
2021/03/07 13:10:17;;;;;;;;;;;;;;;;;;4995179;28;1712;-61
2021/03/07 13:12:43;;;;;;;;;;;;;;;;;;5005705;28;1717;-62
2021/03/07 13:15:09;;;;;;;;;;;;;;;;;;4997755;28;1959;-62
2021/03/07 13:17:35;;;;;;;;;;;;;;;;;;5004572;28;1666;-61
2021/03/07 13:20:03;;;;;;;;;;;;;;;;;;5005280;28;1085;-61
2021/03/07 13:22:28;;;;;;;;;;;;;;;;;;5000715;28;1825;-60
2021/03/07 13:24:53;;;;;;;;;;;;;;;;;;5006004;28;1957;-61
2021/03/07 13:27:19;;;;;;;;;;;;;;;;;;4994638;28;990;-61
2021/03/07 13:29:44;;;;;;;;;;;;;;;;;;5002378;28;1718;-60
2021/03/07 13:32:11;;;;;;;;;;;;;;;;;;4997324;28;1781;-61
2021/03/07 13:34:37;;;;;;;;;;;;;;;;;;4992345;28;1635;-63
2021/03/07 13:37:03;;;;;;;;;;;;;;;;;;4999625;28;1948;-61
2021/03/07 13:39:28;;;;;;;;;;;;;;;;;;4997391;28;1770;-60
2021/03/07 13:41:54;;;;;;;;;;;;;;;;;;5015416;28;1268;-61
2021/03/07 13:44:20;;;;;;;;;;;;;;;;;;4995730;28;1890;-61
2021/03/07 13:46:45;;;;;;;;;;;;;;;;;;4996125;28;1662;-61
2021/03/07 13:49:11;;;;;;;;;;;;;;;;;;4995142;28;1788;-62
2021/03/07 13:51:37;;;;;;;;;;;;;;;;;;5001029;28;1647;-62
2021/03/07 13:54:02;;;;;;;;;;;;;;;;;;5006463;28;993;-62
2021/03/07 13:56:27;;;;;;;;;;;;;;;;;;4999515;28;1805;-62
2021/03/07 13:58:53;;;;;;;;;;;;;;;;;;4996607;28;1848;-62
2021/03/07 14:01:18;;;;;;;;;;;;;;;;;;5005650;28;1634;-63
2021/03/07 14:03:43;;;;;;;;;;;;;;;;;;4996902;28;1085;-61
2021/03/07 14:06:09;;;;;;;;;;;;;;;;;;5005246;28;1959;-63
2021/03/07 14:08:34;;;;;;;;;;;;;;;;;;5003769;28;1634;-63
2021/03/07 14:11:00;;;;;;;;;;;;;;;;;;4994253;28;2011;-62
2021/03/07 14:13:25;;;;;;;;;;;;;;;;;;5002602;28;1643;-63
2021/03/07 14:15:51;;;;;;;;;;;;;;;;;;4998027;28;1642;-63
2021/03/07 14:18:16;;;;;;;;;;;;;;;;;;5007508;28;907;-63
2021/03/07 14:20:42;;;;;;;;;;;;;;;;;;5004543;28;1845;-62
2021/03/07 14:23:08;;;;;;;;;;;;;;;;;;5001948;28;1701;-63
2021/03/07 14:25:34;;;;;;;;;;;;;;;;;;4998285;28;1902;-63
2021/03/07 14:28:00;;;;;;;;;;;;;;;;;;5003983;28;986;-62
2021/03/07 14:30:25;;;;;;;;;;;;;;;;;;5007036;28;2035;-62
2021/03/07 14:32:51;;;;;;;;;;;;;;;;;;4999746;28;1768;-63
2021/03/07 14:35:16;;;;;;;;;;;;;;;;;;4996268;28;1777;-63
2021/03/07 14:37:43;;;;;;;;;;;;;;;;;;4999865;28;1951;-63
2021/03/07 14:40:09;;;;;;;;;;;;;;;;;;5000375;28;1777;-63
2021/03/07 14:42:36;;;;;;;;;;;;;;;;;;4999208;28;1808;-63
2021/03/07 14:45:03;;;;;;;;;;;;;;;;;;5009263;28;1898;-62
2021/03/07 14:47:28;;;;;;;;;;;;;;;;;;4988598;28;1302;-61
2021/03/07 14:49:53;;;;;;;;;;;;;;;;;;4997295;28;1754;-61
2021/03/07 14:52:19;;;;;;;;;;;;;;;;;;5007372;28;1319;-61
2021/03/07 14:54:44;;;;;;;;;;;;;;;;;;5014671;28;1539;-62
2021/03/07 14:57:09;;;;;;;;;;;;;;;;;;5002189;28;1660;-63
2021/03/07 14:59:35;;;;;;;;;;;;;;;;;;5002230;28;950;-62
2021/03/07 15:02:00;;;;;;;;;;;;;;;;;;5000297;28;864;-64
2021/03/07 15:04:26;;;;;;;;;;;;;;;;;;5007792;28;1918;-63
2021/03/07 15:06:51;;;;;;;;;;;;;;;;;;5007488;28;922;-63
2021/03/07 15:09:16;;;;;;;;;;;;;;;;;;5008044;28;914;-62
2021/03/07 15:11:42;;;;;;;;;;;;;;;;;;5008196;28;830;-62
2021/03/07 15:14:08;;;;;;;;;;;;;;;;;;5008177;28;873;-63
2021/03/07 15:16:34;;;;;;;;;;;;;;;;;;5009016;28;839;-63
2021/03/07 15:18:59;;;;;;;;;;;;;;;;;;5008501;28;839;-63
2021/03/07 15:21:25;;;;;;;;;;;;;;;;;;5006484;28;1400;-64
2021/03/07 15:23:50;;;;;;;;;;;;;;;;;;5007936;28;903;-62
2021/03/07 15:26:16;;;;;;;;;;;;;;;;;;5006809;28;1949;-63
2021/03/07 15:28:42;;;;;;;;;;;;;;;;;;5007146;28;836;-62
2021/03/07 15:31:07;;;;;;;;;;;;;;;;;;5008107;28;855;-62
2021/03/07 15:33:32;;;;;;;;;;;;;;;;;;5008700;28;910;-62
2021/03/07 15:35:58;;;;;;;;;;;;;;;;;;5014239;28;1689;-62
2021/03/07 15:38:23;;;;;;;;;;;;;;;;;;5016357;28;1771;-62
2021/03/07 15:40:48;;;;;;;;;;;;;;;;;;5021624;28;1199;-62
2021/03/07 15:43:14;;;;;;;;;;;;;;;;;;5027038;28;912;-60
2021/03/07 15:45:39;;;;;;;;;;;;;;;;;;5024630;28;1945;-61
2021/03/07 15:48:04;;;;;;;;;;;;;;;;;;5013500;28;1217;-61
2021/03/07 15:50:30;;;;;;;;;;;;;;;;;;5001366;28;1758;-63
2021/03/07 15:52:55;;;;;;;;;;;;;;;;;;5007455;28;1648;-61
2021/03/07 15:55:21;;;;;;;;;;;;;;;;;;5007051;28;1255;-62
2021/03/07 15:57:46;;;;;;;;;;;;;;;;;;5005925;28;1156;-62
2021/03/07 16:00:12;;;;;;;;;;;;;;;;;;5025349;28;942;-62
2021/03/07 16:02:37;;;;;;;;;;;;;;;;;;5024270;28;832;-62
2021/03/07 16:05:04;;;;;;;;;;;;;;;;;;5027587;28;1906;-62
2021/03/07 16:07:29;;;;;;;;;;;;;;;;;;5001784;28;1765;-61
2021/03/07 16:09:56;;;;;;;;;;;;;;;;;;5000295;28;1108;-61
2021/03/07 16:12:21;;;;;;;;;;;;;;;;;;4987598;28;923;-61
2021/03/07 16:14:46;;;;;;;;;;;;;;;;;;5003337;28;883;-62
2021/03/07 16:17:12;;;;;;;;;;;;;;;;;;5006846;28;871;-62
2021/03/07 16:19:37;;;;;;;;;;;;;;;;;;5004790;28;1858;-62
2021/03/07 16:22:02;;;;;;;;;;;;;;;;;;4988958;28;1047;-61
2021/03/07 16:24:28;;;;;;;;;;;;;;;;;;4994736;28;1915;-61
2021/03/07 16:26:53;;;;;;;;;;;;;;;;;;5004627;28;894;-61
2021/03/07 16:29:19;;;;;;;;;;;;;;;;;;4998727;28;1587;-60
2021/03/07 16:31:44;;;;;;;;;;;;;;;;;;4997684;28;1520;-60
2021/03/07 16:34:10;;;;;;;;;;;;;;;;;;4999010;28;1686;-60
2021/03/07 16:36:35;;;;;;;;;;;;;;;;;;5001869;28;1639;-60
2021/03/07 16:39:00;;;;;;;;;;;;;;;;;;4998094;28;1295;-62
2021/03/07 16:41:26;;;;;;;;;;;;;;;;;;4994869;28;1193;-60
2021/03/07 16:43:51;;;;;;;;;;;;;;;;;;4997064;28;1258;-60
2021/03/07 16:46:17;;;;;;;;;;;;;;;;;;4996069;28;2028;-60
2021/03/07 16:48:43;;;;;;;;;;;;;;;;;;4994934;28;1478;-60
2021/03/07 16:51:08;;;;;;;;;;;;;;;;;;4998005;28;1321;-60
2021/03/07 16:53:34;;;;;;;;;;;;;;;;;;4998271;28;1297;-62
2021/03/07 16:55:59;;;;;;;;;;;;;;;;;;4994380;28;1238;-62
2021/03/07 16:58:25;;;;;;;;;;;;;;;;;;5011380;28;1451;-62
2021/03/07 17:00:50;;;;;;;;;;;;;;;;;;5014094;28;1549;-61
2021/03/07 17:03:15;;;;;;;;;;;;;;;;;;5011159;28;1528;-62
2021/03/07 17:05:41;;;;;;;;;;;;;;;;;;5010267;28;1902;-61